createdAt,value
2022-12-15T00:00:11.300Z,24.41
2022-12-15T00:02:59.387Z,24.40
2022-12-15T00:05:50.016Z,24.38
2022-12-15T00:08:36.221Z,24.37
2022-12-15T00:11:23.434Z,24.36
2022-12-15T00:14:11.457Z,24.31
2022-12-15T00:16:58.864Z,24.31
2022-12-15T00:19:47.109Z,24.29
2022-12-15T00:22:35.439Z,24.26
2022-12-15T00:25:22.881Z,24.25
2022-12-15T00:28:10.414Z,24.24
2022-12-15T00:31:02.219Z,24.22
2022-12-15T00:33:48.140Z,24.20
2022-12-15T00:36:35.685Z,24.18
2022-12-15T00:39:07.821Z,24.16
2022-12-15T00:41:38.041Z,24.12
2022-12-15T00:44:09.087Z,24.12
2022-12-15T00:46:59.921Z,24.11
2022-12-15T00:49:50.555Z,24.08
2022-12-15T00:52:39.771Z,24.06
2022-12-15T00:55:32.993Z,24.05
2022-12-15T00:58:20.887Z,24.01
2022-12-15T01:01:09.332Z,24.01
2022-12-15T01:03:57.507Z,23.99
2022-12-15T01:06:46.300Z,23.97
2022-12-15T01:09:36.256Z,23.93
2022-12-15T01:12:25.586Z,23.95
2022-12-15T01:15:13.992Z,23.96
2022-12-15T01:18:01.644Z,23.97
2022-12-15T01:20:34.842Z,24.00
2022-12-15T01:23:05.981Z,24.00
2022-12-15T01:25:40.401Z,24.02
2022-12-15T01:28:10.293Z,24.04
2022-12-15T01:30:40.517Z,24.06
2022-12-15T01:33:11.361Z,24.06
2022-12-15T01:35:41.706Z,24.08
2022-12-15T01:38:13.083Z,24.11
2022-12-15T01:40:50.928Z,24.15
2022-12-15T01:43:30.620Z,24.16
2022-12-15T01:46:05.512Z,24.18
2022-12-15T01:48:47.045Z,24.21
2022-12-15T01:51:38.299Z,24.23
2022-12-15T01:54:17.610Z,24.26
2022-12-15T01:56:52.487Z,24.28
2022-12-15T01:59:25.275Z,24.30
2022-12-15T02:01:55.629Z,24.34
2022-12-15T02:04:27.438Z,24.36
2022-12-15T02:07:00.187Z,24.38
2022-12-15T02:09:30.651Z,24.41
2022-12-15T02:12:11.057Z,24.44
2022-12-15T02:14:49.970Z,24.45
2022-12-15T02:17:50.836Z,24.48
2022-12-15T02:20:46.079Z,24.50
2022-12-15T02:23:54.474Z,24.54
2022-12-15T02:26:53.812Z,24.55
2022-12-15T02:29:41.513Z,24.59
2022-12-15T02:32:17.111Z,24.62
2022-12-15T02:34:54.132Z,24.65
2022-12-15T02:37:27.878Z,24.66
2022-12-15T02:39:58.600Z,24.67
2022-12-15T02:42:31.069Z,24.63
2022-12-15T02:45:09.724Z,24.62
2022-12-15T02:47:52.976Z,24.59
2022-12-15T02:50:25.871Z,24.58
2022-12-15T02:53:01.687Z,24.55
2022-12-15T02:55:35.069Z,24.53
2022-12-15T02:58:10.766Z,24.50
2022-12-15T03:00:43.181Z,24.48
2022-12-15T03:03:14.846Z,24.47
2022-12-15T03:05:46.018Z,24.46
2022-12-15T03:08:16.378Z,24.44
2022-12-15T03:10:46.931Z,24.42
2022-12-15T03:13:17.264Z,24.42
2022-12-15T03:15:47.443Z,24.40
2022-12-15T03:18:17.667Z,24.39
2022-12-15T03:20:47.940Z,24.36
2022-12-15T03:23:20.217Z,24.36
2022-12-15T03:25:50.449Z,24.33
2022-12-15T03:28:20.513Z,24.32
2022-12-15T03:30:52.147Z,24.30
2022-12-15T03:33:23.163Z,24.30
2022-12-15T03:35:53.157Z,24.32
2022-12-15T03:38:23.074Z,24.36
2022-12-15T03:40:54.198Z,24.37
2022-12-15T03:43:24.958Z,24.39
2022-12-15T03:45:55.719Z,24.40
2022-12-15T03:48:26.137Z,24.42
2022-12-15T03:50:58.397Z,24.44
2022-12-15T03:53:30.183Z,24.46
2022-12-15T03:58:50.877Z,24.46
2022-12-15T04:01:27.434Z,24.42
2022-12-15T04:04:00.992Z,24.39
2022-12-15T04:06:31.221Z,24.36
2022-12-15T04:09:06.212Z,24.34
2022-12-15T04:11:37.816Z,24.32
2022-12-15T04:14:10.985Z,24.31
2022-12-15T04:16:41.041Z,24.16
2022-12-15T04:19:29.851Z,24.16
2022-12-15T04:22:05.384Z,24.26
2022-12-15T04:24:52.256Z,24.22
2022-12-15T04:27:40.777Z,24.22
2022-12-15T04:30:29.192Z,24.21
2022-12-15T04:33:17.862Z,24.19
2022-12-15T04:36:05.218Z,24.17
2022-12-15T04:38:53.248Z,24.16
2022-12-15T04:41:41.590Z,24.15
2022-12-15T04:44:29.859Z,24.13
2022-12-15T04:47:17.477Z,24.10
2022-12-15T04:50:05.403Z,24.08
2022-12-15T04:52:53.645Z,24.07
2022-12-15T04:55:41.316Z,24.05
2022-12-15T04:58:28.960Z,24.02
2022-12-15T05:01:18.112Z,24.00
2022-12-15T05:04:05.825Z,23.98
2022-12-15T05:06:53.616Z,23.97
2022-12-15T05:09:41.757Z,23.94
2022-12-15T05:12:30.800Z,23.92
2022-12-15T05:15:19.232Z,23.90
2022-12-15T05:18:06.611Z,23.87
2022-12-15T05:20:54.172Z,23.84
2022-12-15T05:26:13.115Z,23.84
2022-12-15T05:29:03.858Z,23.76
2022-12-15T05:31:51.370Z,23.74
2022-12-15T05:34:27.239Z,23.72
2022-12-15T05:36:59.396Z,23.69
2022-12-15T05:39:29.417Z,23.58
2022-12-15T05:41:59.924Z,23.63
2022-12-15T05:44:30.843Z,23.63
2022-12-15T05:47:01.722Z,23.61
2022-12-15T05:49:33.000Z,23.54
2022-12-15T05:52:03.776Z,23.53
2022-12-15T05:54:33.968Z,23.53
2022-12-15T05:57:05.318Z,23.52
2022-12-15T05:59:35.569Z,23.48
2022-12-15T06:02:06.384Z,23.47
2022-12-15T06:04:37.112Z,23.44
2022-12-15T06:07:07.707Z,23.42
2022-12-15T06:09:37.973Z,23.40
2022-12-15T06:12:08.566Z,23.38
2022-12-15T06:14:38.869Z,23.35
2022-12-15T06:17:08.788Z,23.34
2022-12-15T06:19:40.208Z,23.32
2022-12-15T06:22:10.324Z,23.30
2022-12-15T06:24:40.333Z,23.27
2022-12-15T06:27:11.019Z,23.24
2022-12-15T06:29:41.109Z,23.21
2022-12-15T06:32:11.544Z,23.19
2022-12-15T06:34:42.531Z,23.17
2022-12-15T06:37:13.183Z,23.15
2022-12-15T06:39:47.516Z,23.14
2022-12-15T06:42:18.000Z,23.11
2022-12-15T06:44:48.559Z,23.09
2022-12-15T06:47:20.708Z,23.07
2022-12-15T06:49:50.725Z,23.05
2022-12-15T06:52:21.230Z,23.01
2022-12-15T06:54:51.455Z,22.98
2022-12-15T06:57:22.013Z,22.97
2022-12-15T06:59:55.378Z,22.95
2022-12-15T07:02:29.149Z,22.93
2022-12-15T07:04:57.502Z,22.89
2022-12-15T07:07:28.642Z,22.88
2022-12-15T07:09:59.990Z,22.86
2022-12-15T07:12:31.492Z,22.83
2022-12-15T07:15:02.137Z,22.81
2022-12-15T07:17:33.726Z,22.78
2022-12-15T07:20:03.977Z,22.74
2022-12-15T07:22:34.423Z,22.73
2022-12-15T07:25:04.525Z,22.73
2022-12-15T07:27:34.479Z,22.70
2022-12-15T07:30:04.467Z,22.69
2022-12-15T07:32:35.304Z,22.66
2022-12-15T07:35:06.374Z,22.64
2022-12-15T07:37:36.731Z,22.62
2022-12-15T07:40:08.189Z,22.60
2022-12-15T07:42:38.781Z,22.57
2022-12-15T07:45:09.603Z,22.56
2022-12-15T07:47:39.858Z,22.53
2022-12-15T07:50:10.939Z,22.51
2022-12-15T07:52:41.871Z,22.49
2022-12-15T07:55:12.307Z,22.46
2022-12-15T07:57:42.149Z,22.43
2022-12-15T08:00:32.119Z,22.43
2022-12-15T08:03:04.427Z,22.40
2022-12-15T08:05:35.007Z,22.38
2022-12-15T08:08:06.722Z,22.35
2022-12-15T08:10:39.877Z,22.32
2022-12-15T08:13:11.054Z,22.31
2022-12-15T08:15:44.178Z,22.29
2022-12-15T08:18:15.540Z,22.27
2022-12-15T08:20:45.850Z,22.25
2022-12-15T08:23:17.617Z,22.22
2022-12-15T08:25:48.546Z,22.20
2022-12-15T08:28:19.036Z,22.17
2022-12-15T08:30:51.514Z,22.14
2022-12-15T08:33:22.554Z,22.13
2022-12-15T08:35:57.228Z,22.10
2022-12-15T08:38:28.005Z,21.97
2022-12-15T08:40:59.176Z,22.06
2022-12-15T08:43:30.638Z,22.03
2022-12-15T08:46:02.804Z,22.02
2022-12-15T08:48:34.367Z,21.96
2022-12-15T08:51:04.832Z,21.98
2022-12-15T08:53:34.829Z,21.95
2022-12-15T08:56:11.850Z,21.93
2022-12-15T08:58:42.126Z,21.91
2022-12-15T09:01:19.035Z,21.89
2022-12-15T09:03:47.035Z,21.88
2022-12-15T09:06:22.115Z,21.85
2022-12-15T09:08:52.343Z,21.82
2022-12-15T09:11:22.979Z,21.81
2022-12-15T09:13:53.225Z,21.78
2022-12-15T09:16:24.425Z,21.75
2022-12-15T09:18:56.738Z,21.74
2022-12-15T09:21:27.953Z,21.72
2022-12-15T09:24:01.062Z,21.72
2022-12-15T09:26:33.801Z,21.73
2022-12-15T09:29:04.917Z,21.73
2022-12-15T09:31:36.811Z,21.74
2022-12-15T09:34:06.857Z,21.76
2022-12-15T09:36:36.972Z,21.79
2022-12-15T09:39:07.085Z,21.80
2022-12-15T09:41:37.542Z,21.83
2022-12-15T09:44:16.552Z,21.85
2022-12-15T09:47:06.574Z,21.86
2022-12-15T09:49:48.608Z,21.89
2022-12-15T09:52:24.109Z,21.89
2022-12-15T09:54:54.324Z,21.90
2022-12-15T09:57:45.426Z,21.92
2022-12-15T10:00:26.050Z,21.92
2022-12-15T10:03:19.587Z,21.92
2022-12-15T10:06:18.233Z,21.91
2022-12-15T10:08:43.064Z,21.91
2022-12-15T10:11:35.777Z,21.89
2022-12-15T10:14:09.237Z,21.89
2022-12-15T10:16:44.664Z,21.87
2022-12-15T10:19:17.844Z,21.86
2022-12-15T10:21:50.506Z,21.85
2022-12-15T10:25:07.382Z,21.84
2022-12-15T10:27:02.145Z,21.83
2022-12-15T10:29:50.721Z,21.82
2022-12-15T10:32:24.646Z,21.79
2022-12-15T10:34:55.962Z,21.78
2022-12-15T10:37:27.193Z,21.77
2022-12-15T10:39:57.772Z,21.77
2022-12-15T10:42:30.831Z,21.75
2022-12-15T10:45:01.841Z,21.73
2022-12-15T10:47:33.462Z,21.74
2022-12-15T10:50:26.386Z,21.75
2022-12-15T10:52:56.739Z,21.75
2022-12-15T10:55:41.259Z,21.78
2022-12-15T10:58:20.324Z,21.79
2022-12-15T11:00:50.958Z,21.81
2022-12-15T11:03:25.801Z,21.83
2022-12-15T11:05:57.744Z,21.84
2022-12-15T11:08:27.624Z,21.86
2022-12-15T11:11:17.388Z,21.88
2022-12-15T11:14:08.128Z,21.91
2022-12-15T11:16:38.425Z,21.93
2022-12-15T11:19:20.214Z,21.96
2022-12-15T11:21:51.823Z,21.97
2022-12-15T11:24:32.634Z,22.02
2022-12-15T11:27:20.601Z,22.05
2022-12-15T11:29:53.892Z,22.04
2022-12-15T11:32:25.421Z,22.11
2022-12-15T11:34:56.263Z,22.12
2022-12-15T11:37:36.274Z,22.20
2022-12-15T11:40:10.844Z,22.25
2022-12-15T11:42:52.420Z,22.31
2022-12-15T11:45:34.677Z,22.39
2022-12-15T11:48:19.146Z,22.46
2022-12-15T11:51:09.407Z,22.51
2022-12-15T11:54:03.562Z,22.57
2022-12-15T11:56:43.214Z,22.62
2022-12-15T11:59:25.054Z,22.69
2022-12-15T12:02:33.301Z,22.77
2022-12-15T12:05:24.102Z,22.83
2022-12-15T12:08:14.908Z,22.89
2022-12-15T12:11:02.041Z,22.93
2022-12-15T12:14:11.877Z,22.99
2022-12-15T12:17:07.414Z,23.08
2022-12-15T12:19:50.769Z,23.18
2022-12-15T12:22:48.105Z,23.25
2022-12-15T12:25:24.055Z,23.31
2022-12-15T12:27:59.819Z,23.40
2022-12-15T12:30:44.690Z,23.47
2022-12-15T12:33:22.134Z,23.55
2022-12-15T12:35:59.869Z,23.62
2022-12-15T12:38:33.107Z,23.70
2022-12-15T12:41:38.077Z,23.74
2022-12-15T12:44:19.620Z,23.76
2022-12-15T12:46:52.181Z,23.81
2022-12-15T12:49:33.822Z,23.87
2022-12-15T12:52:06.240Z,23.93
2022-12-15T12:54:41.794Z,23.96
2022-12-15T12:57:18.564Z,24.01
2022-12-15T12:59:56.564Z,24.04
2022-12-15T13:02:30.473Z,24.08
2022-12-15T13:05:05.583Z,24.05
2022-12-15T13:07:40.098Z,24.05
2022-12-15T13:10:23.513Z,24.19
2022-12-15T13:13:00.663Z,24.25
2022-12-15T13:15:39.893Z,24.26
2022-12-15T13:18:22.339Z,24.28
2022-12-15T13:20:54.299Z,24.30
2022-12-15T13:23:27.196Z,24.32
2022-12-15T13:26:03.360Z,24.37
2022-12-15T13:28:46.566Z,24.42
2022-12-15T13:31:22.627Z,24.49
2022-12-15T13:33:55.511Z,24.55
2022-12-15T13:36:43.407Z,24.60
2022-12-15T13:39:21.756Z,24.61
2022-12-15T13:44:32.095Z,24.67
2022-12-15T13:47:22.865Z,24.68
2022-12-15T13:50:02.691Z,24.70
2022-12-15T13:55:28.296Z,24.79
2022-12-15T13:58:17.034Z,24.85
2022-12-15T14:03:15.918Z,24.97
2022-12-15T14:05:49.151Z,24.94
2022-12-15T14:08:21.330Z,24.94
2022-12-15T14:10:55.348Z,24.97
2022-12-15T14:13:26.975Z,24.99
2022-12-15T14:15:59.432Z,25.05
2022-12-15T14:18:40.283Z,25.13
2022-12-15T14:21:23.557Z,25.16
2022-12-15T14:26:31.208Z,25.20
2022-12-15T14:29:03.810Z,25.22
2022-12-15T14:31:36.447Z,25.24
2022-12-15T14:34:08.743Z,25.25
2022-12-15T14:36:38.828Z,25.27
2022-12-15T14:39:12.391Z,25.31
2022-12-15T14:41:44.838Z,25.29
2022-12-15T14:46:49.360Z,25.18
2022-12-15T14:49:26.193Z,25.16
2022-12-15T14:52:02.039Z,25.12
2022-12-15T14:54:36.825Z,25.10
2022-12-15T14:57:12.730Z,25.06
2022-12-15T14:59:45.884Z,25.02
2022-12-15T15:02:27.425Z,25.00
2022-12-15T15:03:11.381Z,25.23
2022-12-15T15:05:02.443Z,24.97
2022-12-15T15:07:34.916Z,24.97
2022-12-15T15:10:05.596Z,24.94
2022-12-15T15:12:46.952Z,24.92
2022-12-15T15:15:21.821Z,24.89
2022-12-15T15:17:54.902Z,24.88
2022-12-15T15:20:33.020Z,24.85
2022-12-15T15:23:22.279Z,24.85
2022-12-15T15:26:02.567Z,24.84
2022-12-15T15:28:41.562Z,24.79
2022-12-15T15:31:27.048Z,24.79
2022-12-15T15:34:00.731Z,24.77
2022-12-15T15:36:34.070Z,24.75
2022-12-15T15:39:06.039Z,24.72
2022-12-15T15:41:36.681Z,24.70
2022-12-15T15:44:09.452Z,24.69
2022-12-15T15:46:40.180Z,24.66
2022-12-15T15:49:11.588Z,24.64
2022-12-15T15:51:42.647Z,24.62
2022-12-15T15:54:20.263Z,24.60
2022-12-15T15:56:51.347Z,24.56
2022-12-15T15:59:22.606Z,24.50
2022-12-15T16:01:56.329Z,24.52
2022-12-15T16:04:27.442Z,24.49
2022-12-15T16:06:57.429Z,24.48
2022-12-15T16:09:32.302Z,24.46
2022-12-15T16:12:05.951Z,24.43
2022-12-15T16:14:37.411Z,24.40
2022-12-15T16:17:10.173Z,24.38
2022-12-15T16:19:42.915Z,24.34
2022-12-15T16:22:21.111Z,24.34
2022-12-15T16:24:51.783Z,24.35
2022-12-15T16:27:22.135Z,24.35
2022-12-15T16:29:53.904Z,24.38
2022-12-15T16:32:24.309Z,24.38
2022-12-15T16:34:55.250Z,24.40
2022-12-15T16:37:32.397Z,24.42
2022-12-15T16:40:01.286Z,24.44
2022-12-15T16:42:33.381Z,24.34
2022-12-15T16:45:26.738Z,24.34
2022-12-15T16:47:56.992Z,24.48
2022-12-15T16:50:35.142Z,24.51
2022-12-15T16:53:06.874Z,24.53
2022-12-15T16:55:40.121Z,24.52
2022-12-15T16:58:11.375Z,24.57
2022-12-15T17:00:43.336Z,24.60
2022-12-15T17:03:16.470Z,24.62
2022-12-15T17:05:50.692Z,24.63
2022-12-15T17:08:43.638Z,24.66
2022-12-15T17:11:21.767Z,24.67
2022-12-15T17:13:56.109Z,24.70
2022-12-15T17:16:26.854Z,24.72
2022-12-15T17:18:57.862Z,24.73
2022-12-15T17:21:32.691Z,24.79
2022-12-15T17:24:07.591Z,24.80
2022-12-15T17:26:39.793Z,24.82
2022-12-15T17:29:19.400Z,24.83
2022-12-15T17:31:56.406Z,24.86
2022-12-15T17:34:33.674Z,24.87
2022-12-15T17:39:45.186Z,24.98
2022-12-15T17:42:22.269Z,24.94
2022-12-15T17:44:54.001Z,24.96
2022-12-15T17:47:26.536Z,24.94
2022-12-15T17:49:59.302Z,24.90
2022-12-15T17:52:36.475Z,24.88
2022-12-15T17:55:09.164Z,24.85
2022-12-15T17:57:39.348Z,24.84
2022-12-15T18:00:20.799Z,24.82
2022-12-15T18:02:54.233Z,24.80
2022-12-15T18:05:27.486Z,24.79
2022-12-15T18:08:03.400Z,24.77
2022-12-15T18:10:41.958Z,24.77
2022-12-15T18:13:20.271Z,24.71
2022-12-15T18:15:51.954Z,24.71
2022-12-15T18:18:22.702Z,24.69
2022-12-15T18:20:55.971Z,24.68
2022-12-15T18:23:32.537Z,24.67
2022-12-15T18:26:05.067Z,24.65
2022-12-15T18:28:36.219Z,24.64
2022-12-15T18:31:28.078Z,24.60
2022-12-15T18:34:04.491Z,24.63
2022-12-15T18:36:31.576Z,24.61
2022-12-15T18:39:03.362Z,24.58
2022-12-15T18:41:34.914Z,24.57
2022-12-15T18:44:07.595Z,24.55
2022-12-15T18:46:37.633Z,24.54
2022-12-15T18:49:12.932Z,24.53
2022-12-15T18:51:43.375Z,24.51
2022-12-15T18:54:19.236Z,24.49
2022-12-15T18:56:49.807Z,24.48
2022-12-15T18:59:21.408Z,24.45
2022-12-15T19:01:51.893Z,24.45
2022-12-15T19:04:23.711Z,24.43
2022-12-15T19:06:54.144Z,24.41
2022-12-15T19:09:24.488Z,24.39
2022-12-15T19:12:12.685Z,24.37
2022-12-15T19:14:43.531Z,24.36
2022-12-15T19:17:31.878Z,24.34
2022-12-15T19:20:20.202Z,24.31
2022-12-15T19:22:50.762Z,24.25
2022-12-15T19:25:26.141Z,24.28
2022-12-15T19:28:03.475Z,24.27
2022-12-15T19:30:41.915Z,24.26
2022-12-15T19:33:11.027Z,24.23
2022-12-15T19:35:41.080Z,24.22
2022-12-15T19:38:11.260Z,24.21
2022-12-15T19:40:41.937Z,24.19
2022-12-15T19:43:12.637Z,24.17
2022-12-15T19:45:43.105Z,24.16
2022-12-15T19:48:14.994Z,24.14
2022-12-15T19:50:46.936Z,24.14
2022-12-15T19:53:19.958Z,24.12
2022-12-15T19:55:50.361Z,24.09
2022-12-15T19:58:32.620Z,24.08
2022-12-15T20:01:06.947Z,24.07
2022-12-15T20:03:37.880Z,24.04
2022-12-15T20:06:10.706Z,24.05
2022-12-15T20:08:40.931Z,24.07
2022-12-15T20:11:14.464Z,24.09
2022-12-15T20:13:44.718Z,24.09
2022-12-15T20:16:16.545Z,24.12
2022-12-15T20:18:47.464Z,24.15
2022-12-15T20:21:22.311Z,24.18
2022-12-15T20:23:58.355Z,24.19
2022-12-15T20:26:30.098Z,24.22
2022-12-15T20:29:01.077Z,24.24
2022-12-15T20:31:31.134Z,24.26
2022-12-15T20:34:01.586Z,24.30
2022-12-15T20:36:33.066Z,24.32
2022-12-15T20:39:04.113Z,24.36
2022-12-15T20:41:35.598Z,24.39
2022-12-15T20:44:07.532Z,24.42
2022-12-15T20:46:37.901Z,24.42
2022-12-15T20:49:10.202Z,24.49
2022-12-15T20:51:41.162Z,24.52
2022-12-15T20:54:13.924Z,24.55
2022-12-15T20:56:44.093Z,24.59
2022-12-15T20:59:14.352Z,24.62
2022-12-15T21:01:45.537Z,24.64
2022-12-15T21:04:27.381Z,24.68
2022-12-15T21:06:58.016Z,24.71
2022-12-15T21:09:28.223Z,24.74
2022-12-15T21:12:03.105Z,24.79
2022-12-15T21:14:31.942Z,24.82
2022-12-15T21:17:03.215Z,24.85
2022-12-15T21:19:34.139Z,24.79
2022-12-15T21:22:05.282Z,24.81
2022-12-15T21:24:36.206Z,24.67
2022-12-15T21:27:07.763Z,24.77
2022-12-15T21:29:38.586Z,24.70
2022-12-15T21:32:09.528Z,24.77
2022-12-15T21:34:39.504Z,24.75
2022-12-15T21:37:26.706Z,24.75
2022-12-15T21:39:57.064Z,24.74
2022-12-15T21:42:27.344Z,24.76
2022-12-15T21:44:57.722Z,24.75
2022-12-15T21:48:01.769Z,24.73
2022-12-15T21:50:33.796Z,24.70
2022-12-15T21:53:05.125Z,24.72
2022-12-15T21:55:36.383Z,24.73
2022-12-15T21:58:10.040Z,24.73
2022-12-15T22:00:45.377Z,24.72
2022-12-15T22:03:12.027Z,24.73
2022-12-15T22:05:42.458Z,24.72
2022-12-15T22:08:21.440Z,24.72
2022-12-15T22:10:52.198Z,24.71
2022-12-15T22:13:23.705Z,24.72
2022-12-15T22:15:54.666Z,24.71
2022-12-15T22:18:25.116Z,24.70
2022-12-15T22:20:55.470Z,24.70
2022-12-15T22:23:25.688Z,24.68
2022-12-15T22:25:57.366Z,24.68
2022-12-15T22:28:28.338Z,24.67
2022-12-15T22:30:58.998Z,24.67
2022-12-15T22:33:29.420Z,24.67
2022-12-15T22:36:00.829Z,24.66
2022-12-15T22:38:31.236Z,24.66
2022-12-15T22:41:05.417Z,24.65
2022-12-15T22:43:41.290Z,24.64
2022-12-15T22:46:13.556Z,24.63
2022-12-15T22:48:46.172Z,24.63
2022-12-15T22:51:17.419Z,24.62
2022-12-15T22:53:47.470Z,24.62
2022-12-15T22:56:29.187Z,24.60
2022-12-15T22:59:05.838Z,24.60
2022-12-15T23:01:40.191Z,24.59
2022-12-15T23:04:10.508Z,24.57
2022-12-15T23:06:40.710Z,24.55
2022-12-15T23:09:10.988Z,24.54
2022-12-15T23:11:45.032Z,24.54
2022-12-15T23:14:17.048Z,24.53
2022-12-15T23:16:47.575Z,24.52
2022-12-15T23:19:26.589Z,24.51
2022-12-15T23:21:58.308Z,24.49
2022-12-15T23:24:28.668Z,24.49
2022-12-15T23:26:58.743Z,24.48
2022-12-15T23:29:28.869Z,24.46
2022-12-15T23:31:58.871Z,24.44
2022-12-15T23:34:29.230Z,24.42
2022-12-15T23:36:59.319Z,24.41
2022-12-15T23:39:30.021Z,24.40
2022-12-15T23:42:01.612Z,24.38
2022-12-15T23:44:35.952Z,24.38
2022-12-15T23:47:08.448Z,24.40
2022-12-15T23:49:38.504Z,24.42
2022-12-15T23:52:09.544Z,24.44
2022-12-15T23:54:40.074Z,24.45
2022-12-15T23:57:10.405Z,24.47
2022-12-15T23:59:41.088Z,24.49
